Terminal Aerodrome Forecast
Issued by NWS Pocatello, ID

Home | Current Version | Previous Version | Text Only | Print | Product List | Glossary On
Versions: 1 2 3 4 5 6 7 8 9 10 11 12 13 14 15
000
FTUS45 KPIH 021800 AAA
TAFPIH
TAF AMD
KPIH 021808Z 0218/0318 27009KT P6SM FEW050 SCT100 BKN150
     FM030600 22014KT P6SM SCT050 BKN070
     FM030900 23015G25KT 2SM -SN OVC020
      TEMPO 0311/0315 1SM -SN SCT004 BKN007 OVC015=

USA.gov is the U.S. government's official web portal to all federal, state and local government web resources and services.